Time;durP1;ratioP1;P1;durP2;ratioP2;P2;SDS_P1;SDS_P2;PMS_P1;PMS_P2;Temp;Humidity;BMP_temperature;BMP_pressure;BME280_temperature;BME280_humidity;BME280_pressure;Samples;Min_cycle;Max_cycle;Signal;HPM_P1;HPM_P2
2021/07/20 00:01:49;;;;;;;11.25;9.30;;;;;;;18.85;69.43;98654.91;5031647;28;20369;-64
2021/07/20 00:04:15;;;;;;;12.52;9.90;;;;;;;18.92;70.05;98658.03;5034810;28;20071;-64
2021/07/20 00:06:40;;;;;;;11.25;9.38;;;;;;;18.88;70.51;98665.16;5029580;28;20033;-64
2021/07/20 00:09:06;;;;;;;12.77;9.07;;;;;;;18.84;71.19;98663.59;5028748;28;20033;-64
2021/07/20 00:11:34;;;;;;;13.80;9.43;;;;;;;18.77;69.87;98669.19;5027270;28;20039;-63
2021/07/20 00:14:00;;;;;;;13.65;9.68;;;;;;;18.65;70.05;98668.91;5028856;28;20032;-63
2021/07/20 00:16:25;;;;;;;10.70;9.27;;;;;;;18.55;70.79;98662.50;5036112;28;20248;-63
2021/07/20 00:18:50;;;;;;;12.55;9.27;;;;;;;18.59;70.99;98658.00;5029041;28;20026;-63
2021/07/20 00:21:16;;;;;;;14.00;10.43;;;;;;;18.56;71.54;98653.81;5030915;28;20029;-64
2021/07/20 00:23:41;;;;;;;11.10;9.85;;;;;;;18.57;70.08;98659.84;5031374;28;20060;-64
2021/07/20 00:26:08;;;;;;;12.13;9.15;;;;;;;18.58;68.99;98659.78;5031854;28;20029;-64
2021/07/20 00:28:33;;;;;;;12.07;8.95;;;;;;;18.56;69.45;98668.53;5029674;28;20041;-64
2021/07/20 00:30:59;;;;;;;10.32;9.15;;;;;;;18.40;70.11;98665.00;5030601;28;20040;-64
2021/07/20 00:33:24;;;;;;;12.82;9.20;;;;;;;18.38;70.75;98659.88;5030263;28;20037;-64
2021/07/20 00:35:50;;;;;;;16.02;10.27;;;;;;;18.26;67.46;98656.16;5029926;28;20029;-64
2021/07/20 00:38:16;;;;;;;12.02;9.82;;;;;;;18.33;67.40;98651.47;5029991;28;20030;-64
2021/07/20 00:40:42;;;;;;;12.52;9.57;;;;;;;18.32;68.37;98660.22;5025246;28;20033;-64
2021/07/20 00:43:08;;;;;;;10.93;9.82;;;;;;;18.12;67.12;98661.16;5026874;28;20112;-63
2021/07/20 00:45:35;;;;;;;15.77;9.63;;;;;;;18.17;66.42;98653.16;5029982;28;20509;-63
2021/07/20 00:48:00;;;;;;;11.82;9.00;;;;;;;18.06;65.30;98653.69;5026991;28;20073;-63
2021/07/20 00:50:31;;;;;;;12.45;9.88;;;;;;;18.06;66.36;98648.50;5028121;28;20069;-64
2021/07/20 00:52:56;;;;;;;11.25;9.35;;;;;;;17.87;67.20;98650.31;5030163;28;20025;-64
2021/07/20 00:55:22;;;;;;;10.98;9.38;;;;;;;17.82;66.32;98634.16;5027353;28;20034;-65
2021/07/20 00:57:48;;;;;;;11.88;8.68;;;;;;;17.79;65.52;98650.69;5027263;28;20324;-65
2021/07/20 01:00:17;;;;;;;15.68;10.65;;;;;;;17.85;66.15;98636.59;5025282;28;20025;-65
2021/07/20 01:02:43;;;;;;;10.82;9.70;;;;;;;17.73;66.90;98639.75;5028418;28;20021;-65
2021/07/20 01:05:12;;;;;;;13.30;9.60;;;;;;;17.68;66.97;98637.38;5029014;28;20037;-65
2021/07/20 01:07:37;;;;;;;15.63;9.77;;;;;;;17.65;66.62;98636.69;5032305;28;20029;-65
2021/07/20 01:10:08;;;;;;;15.63;9.48;;;;;;;17.63;66.19;98633.31;5028482;28;20318;-64
2021/07/20 01:12:38;;;;;;;13.45;9.02;;;;;;;17.54;66.36;98634.56;5026118;28;20043;-63
2021/07/20 01:15:06;;;;;;;13.90;10.23;;;;;;;17.60;67.55;98638.66;5028209;28;20033;-63
2021/07/20 01:17:33;;;;;;;17.58;10.05;;;;;;;17.52;68.92;98628.63;5029402;28;20033;-63
2021/07/20 01:19:59;;;;;;;11.60;9.82;;;;;;;17.36;70.71;98636.25;5028424;28;20022;-63
2021/07/20 01:22:32;;;;;;;14.15;10.27;;;;;;;17.23;71.59;98636.88;5027285;28;20051;-64
2021/07/20 01:25:00;;;;;;;14.02;9.25;;;;;;;17.14;73.00;98635.56;5028130;28;20050;-63
2021/07/20 01:27:26;;;;;;;11.75;10.13;;;;;;;17.09;73.49;98628.91;5024864;28;20104;-63
2021/07/20 01:29:53;;;;;;;12.52;8.95;;;;;;;17.18;73.37;98625.91;5023908;28;20029;-63
2021/07/20 01:32:20;;;;;;;12.00;9.40;;;;;;;17.08;73.86;98633.25;5028649;28;20040;-63
2021/07/20 01:34:46;;;;;;;12.65;9.80;;;;;;;16.98;74.18;98633.72;5030557;28;20089;-63
2021/07/20 01:37:15;;;;;;;10.65;8.98;;;;;;;16.95;74.25;98629.53;5025612;28;20256;-63
2021/07/20 01:39:42;;;;;;;11.32;9.88;;;;;;;16.88;73.89;98634.16;5032558;28;20063;-63
2021/07/20 01:42:09;;;;;;;13.82;9.73;;;;;;;16.85;73.38;98630.84;5028053;28;20029;-63
2021/07/20 01:44:35;;;;;;;15.02;8.60;;;;;;;16.75;71.60;98632.16;5029189;28;20021;-64
2021/07/20 01:47:01;;;;;;;12.85;8.68;;;;;;;16.77;70.77;98630.34;5025299;28;20402;-64
2021/07/20 01:49:27;;;;;;;12.95;8.68;;;;;;;16.65;70.39;98631.72;5025097;28;20034;-63
2021/07/20 01:51:54;;;;;;;13.48;7.95;;;;;;;16.60;69.55;98630.22;5024890;28;20029;-63
2021/07/20 01:54:20;;;;;;;12.43;8.50;;;;;;;16.61;69.71;98624.16;5025618;28;20036;-64
2021/07/20 01:56:50;;;;;;;14.73;8.45;;;;;;;16.55;70.14;98627.81;5028908;28;20033;-63
2021/07/20 01:59:15;;;;;;;13.35;7.90;;;;;;;16.49;69.87;98622.06;5026319;28;20025;-63
2021/07/20 02:01:56;;;;;;;16.75;8.60;;;;;;;16.51;69.09;98626.25;5026961;28;20091;-63
2021/07/20 02:09:38;;;;;;;10.23;7.78;;;;;;;16.48;68.55;98608.28;5023999;28;20336;-64
2021/07/20 02:12:14;;;;;;;9.65;7.25;;;;;;;16.52;67.33;98609.81;5023430;28;20148;-64
2021/07/20 02:14:43;;;;;;;11.18;7.97;;;;;;;16.47;66.81;98611.75;5026320;28;20044;-64
2021/07/20 02:17:12;;;;;;;11.60;7.40;;;;;;;16.50;66.06;98611.66;5030263;28;20345;-64
2021/07/20 02:19:47;;;;;;;9.38;7.60;;;;;;;16.49;65.93;98619.47;5025011;28;20184;-64
2021/07/20 02:22:18;;;;;;;10.25;7.75;;;;;;;16.41;66.63;98628.41;5025875;28;20049;-64
2021/07/20 02:24:45;;;;;;;12.27;8.13;;;;;;;16.36;66.51;98624.34;5029106;28;20300;-63
2021/07/20 02:27:12;;;;;;;12.48;7.75;;;;;;;16.36;66.17;98630.34;5027788;28;20334;-63
2021/07/20 02:29:38;;;;;;;10.60;7.30;;;;;;;16.26;67.70;98623.88;5027953;28;20056;-63
2021/07/20 02:32:05;;;;;;;11.93;8.55;;;;;;;16.21;67.87;98630.16;5026238;28;20048;-63
2021/07/20 02:34:34;;;;;;;8.68;7.40;;;;;;;16.17;68.45;98632.00;5026646;28;20033;-63
2021/07/20 02:37:00;;;;;;;10.23;7.68;;;;;;;16.07;69.02;98638.50;5029573;28;20039;-63
2021/07/20 02:39:28;;;;;;;10.93;7.55;;;;;;;16.05;69.36;98637.69;5031143;28;20052;-63
2021/07/20 02:41:55;;;;;;;10.45;7.50;;;;;;;16.01;69.84;98633.56;5032758;28;20083;-63
2021/07/20 02:44:24;;;;;;;13.10;8.40;;;;;;;15.99;69.71;98627.63;5032932;28;20054;-63
2021/07/20 02:46:50;;;;;;;12.68;7.72;;;;;;;15.94;70.88;98637.31;5031453;28;20033;-63
2021/07/20 02:49:16;;;;;;;14.15;8.40;;;;;;;15.89;71.03;98641.81;5033276;28;20025;-62
2021/07/20 02:51:48;;;;;;;11.20;8.00;;;;;;;15.90;70.94;98635.75;5036753;28;20116;-62
2021/07/20 02:54:17;;;;;;;14.73;8.20;;;;;;;15.87;70.28;98646.22;5044031;28;20026;-63
2021/07/20 02:56:44;;;;;;;14.68;8.20;;;;;;;15.83;70.18;98639.47;5028498;28;20104;-62
2021/07/20 02:59:14;;;;;;;9.00;8.05;;;;;;;15.91;70.31;98640.03;5031409;28;20029;-63
2021/07/20 03:01:41;;;;;;;11.07;8.63;;;;;;;15.87;70.76;98638.47;5032107;28;20017;-63
2021/07/20 03:04:07;;;;;;;10.13;7.93;;;;;;;15.86;71.14;98629.00;5033476;28;20029;-63
2021/07/20 03:06:33;;;;;;;10.77;8.73;;;;;;;15.84;71.18;98628.22;5029988;28;20611;-63
2021/07/20 03:08:59;;;;;;;11.18;8.55;;;;;;;15.95;70.95;98633.81;5033602;28;20038;-63
2021/07/20 03:11:30;;;;;;;11.00;8.85;;;;;;;16.00;71.38;98631.88;5030226;28;20067;-63
2021/07/20 03:14:00;;;;;;;14.65;9.40;;;;;;;16.01;71.67;98630.97;5031864;28;20057;-63
2021/07/20 03:16:26;;;;;;;10.60;8.68;;;;;;;15.95;71.84;98632.03;5030793;28;20103;-63
2021/07/20 03:18:52;;;;;;;11.02;8.48;;;;;;;15.97;72.01;98632.00;5033044;28;20034;-64
2021/07/20 03:21:19;;;;;;;9.65;8.48;;;;;;;15.98;71.45;98638.84;5035901;28;20033;-63
2021/07/20 03:23:47;;;;;;;12.35;9.30;;;;;;;16.02;72.23;98624.06;5028320;28;20081;-63
2021/07/20 03:26:13;;;;;;;12.52;9.38;;;;;;;16.11;71.64;98631.44;5030444;28;20045;-63
2021/07/20 03:28:42;;;;;;;13.07;8.18;;;;;;;16.14;71.57;98623.53;5039423;28;20157;-63
2021/07/20 03:31:09;;;;;;;14.45;8.90;;;;;;;16.15;71.42;98625.22;5030798;28;20322;-62
2021/07/20 03:33:38;;;;;;;14.57;7.53;;;;;;;16.22;71.23;98621.47;5027908;28;20064;-63
2021/07/20 03:36:04;;;;;;;12.23;8.10;;;;;;;16.23;70.76;98631.78;5035572;28;20033;-65
2021/07/20 03:38:30;;;;;;;11.30;7.80;;;;;;;16.26;70.69;98625.63;5032077;28;20040;-65
2021/07/20 03:40:55;;;;;;;11.27;8.88;;;;;;;16.27;70.43;98622.13;5030573;28;20359;-63
2021/07/20 03:43:23;;;;;;;13.63;9.02;;;;;;;16.39;69.58;98629.38;5026498;28;20042;-64
2021/07/20 03:45:49;;;;;;;17.95;8.27;;;;;;;16.35;69.11;98628.66;5029223;28;20043;-64
2021/07/20 03:48:16;;;;;;;11.20;7.70;;;;;;;16.46;68.92;98638.56;5030365;28;20029;-64
2021/07/20 03:50:44;;;;;;;10.98;8.15;;;;;;;16.45;70.07;98649.81;5030235;28;20074;-64
2021/07/20 03:53:11;;;;;;;12.40;8.00;;;;;;;16.51;69.74;98653.91;5030951;28;20033;-64
2021/07/20 03:55:40;;;;;;;11.00;8.48;;;;;;;16.58;69.04;98650.19;5031942;28;20044;-63
2021/07/20 03:58:05;;;;;;;11.43;8.05;;;;;;;16.59;68.60;98652.69;5030795;28;20033;-63
2021/07/20 04:00:32;;;;;;;10.27;8.15;;;;;;;16.66;66.87;98653.28;5027126;28;20342;-63
2021/07/20 04:05:45;;;;;;;11.63;7.15;;;;;;;16.70;65.81;98644.47;5027728;28;20664;-64
2021/07/20 04:08:14;;;;;;;12.27;7.78;;;;;;;16.85;65.59;98651.56;5025508;28;20343;-64
2021/07/20 04:10:40;;;;;;;9.52;7.43;;;;;;;16.86;64.95;98650.66;5026270;28;20299;-64
2021/07/20 04:13:12;;;;;;;8.80;7.10;;;;;;;16.92;64.85;98642.63;5028263;28;20044;-64
2021/07/20 04:15:45;;;;;;;12.88;8.57;;;;;;;16.95;66.21;98655.44;5029513;28;20172;-64
2021/07/20 04:18:11;;;;;;;10.65;7.93;;;;;;;16.92;64.02;98655.56;5029179;28;20326;-64
2021/07/20 04:20:37;;;;;;;14.02;7.38;;;;;;;16.91;63.62;98666.84;5026796;28;20086;-64
2021/07/20 04:23:05;;;;;;;9.77;6.93;;;;;;;17.07;62.70;98661.81;5031451;28;20262;-64
2021/07/20 04:25:32;;;;;;;12.88;8.15;;;;;;;17.06;61.47;98676.50;5027631;28;20041;-64
2021/07/20 04:27:57;;;;;;;8.20;6.97;;;;;;;17.10;61.14;98672.06;5027742;28;20334;-64
2021/07/20 04:30:23;;;;;;;12.38;7.47;;;;;;;16.97;61.75;98676.09;5027196;28;20091;-64
2021/07/20 04:32:49;;;;;;;10.30;7.43;;;;;;;16.92;61.66;98678.88;5035194;28;20111;-64
2021/07/20 04:35:18;;;;;;;12.45;7.97;;;;;;;17.07;61.76;98687.72;5028071;28;20041;-64
2021/07/20 04:37:44;;;;;;;13.88;7.50;;;;;;;17.00;62.13;98683.72;5033153;28;20063;-64
2021/07/20 04:40:11;;;;;;;11.70;7.43;;;;;;;17.00;61.59;98679.38;5031757;28;20049;-64
2021/07/20 04:42:39;;;;;;;10.18;7.22;;;;;;;17.04;61.83;98680.09;5029371;28;20355;-64
2021/07/20 04:45:07;;;;;;;14.30;7.90;;;;;;;17.10;61.12;98683.22;5025001;28;20056;-64
2021/07/20 04:47:32;;;;;;;10.15;6.95;;;;;;;17.03;60.75;98693.94;5029101;28;20028;-64
2021/07/20 04:49:58;;;;;;;9.23;6.72;;;;;;;16.85;60.99;98691.25;5029880;28;20041;-64
2021/07/20 04:52:24;;;;;;;11.38;7.30;;;;;;;16.88;61.10;98695.47;5029127;28;20037;-64
2021/07/20 04:54:50;;;;;;;9.10;6.63;;;;;;;16.94;61.33;98692.59;5026983;28;20302;-64
2021/07/20 04:57:15;;;;;;;10.25;7.20;;;;;;;16.76;62.55;98698.59;5026025;28;20066;-64
2021/07/20 04:59:40;;;;;;;12.85;7.40;;;;;;;16.72;61.84;98705.63;5026699;28;20291;-64
2021/07/20 05:02:13;;;;;;;11.57;7.25;;;;;;;16.81;61.22;98704.38;5023201;28;20465;-64
2021/07/20 05:04:39;;;;;;;12.38;6.82;;;;;;;16.73;60.93;98711.63;5030588;28;20030;-64
2021/07/20 05:07:05;;;;;;;7.10;6.40;;;;;;;16.75;60.79;98710.69;5028707;28;20038;-64
2021/07/20 05:09:32;;;;;;;13.00;7.15;;;;;;;16.67;61.03;98709.34;5026180;28;20041;-64
2021/07/20 05:11:58;;;;;;;8.05;6.53;;;;;;;16.82;60.58;98706.06;5028990;28;20485;-64
2021/07/20 05:14:23;;;;;;;8.68;6.38;;;;;;;16.70;60.62;98701.44;5025662;28;20043;-63
2021/07/20 05:16:49;;;;;;;9.20;6.40;;;;;;;16.81;60.80;98705.22;5022272;28;20143;-63
2021/07/20 05:19:16;;;;;;;10.57;7.75;;;;;;;16.85;60.71;98700.75;5024255;28;20103;-63
2021/07/20 05:21:44;;;;;;;9.98;6.88;;;;;;;16.93;60.35;98713.41;5023987;28;20030;-63
2021/07/20 05:24:10;;;;;;;14.35;7.43;;;;;;;17.08;59.85;98710.13;5029547;28;20084;-64
2021/07/20 05:26:40;;;;;;;9.90;6.80;;;;;;;17.40;59.45;98711.31;5026982;28;20379;-64
2021/07/20 05:29:06;;;;;;;10.63;6.47;;;;;;;17.39;58.71;98710.47;5027843;28;20048;-64
2021/07/20 05:31:32;;;;;;;11.43;6.72;;;;;;;17.59;58.21;98715.59;5025078;28;20037;-64
2021/07/20 05:33:58;;;;;;;11.70;7.05;;;;;;;17.51;58.35;98737.56;5027257;28;20037;-64
2021/07/20 05:36:23;;;;;;;11.70;6.95;;;;;;;17.74;57.81;98720.06;5026354;28;20294;-64
2021/07/20 05:38:49;;;;;;;11.75;6.07;;;;;;;17.86;56.88;98718.69;5027878;28;20370;-64
2021/07/20 05:41:14;;;;;;;10.25;7.03;;;;;;;17.98;56.11;98712.91;5027897;28;20021;-64
2021/07/20 05:43:40;;;;;;;8.88;5.97;;;;;;;18.12;56.55;98720.84;5029011;28;20029;-64
2021/07/20 05:46:06;;;;;;;10.43;6.80;;;;;;;18.08;56.09;98718.47;5022527;28;20112;-64
2021/07/20 05:48:32;;;;;;;8.13;6.82;;;;;;;18.07;55.89;98717.66;5029118;28;20369;-64
2021/07/20 05:51:03;;;;;;;9.68;6.43;;;;;;;18.12;54.89;98720.03;5027526;28;20029;-64
2021/07/20 05:53:31;;;;;;;10.77;7.68;;;;;;;18.21;55.01;98715.22;5025816;28;20033;-63
2021/07/20 05:56:00;;;;;;;9.07;6.57;;;;;;;18.26;54.91;98721.03;5029832;28;20038;-64
2021/07/20 05:58:26;;;;;;;11.50;7.05;;;;;;;18.20;55.25;98723.09;5028045;28;20033;-64
2021/07/20 06:00:53;;;;;;;9.35;5.95;;;;;;;18.25;54.40;98719.34;5030227;28;20377;-61
2021/07/20 06:03:21;;;;;;;10.65;7.30;;;;;;;18.46;54.08;98725.25;5024485;28;20113;-64
2021/07/20 06:05:51;;;;;;;9.32;6.03;;;;;;;18.65;54.22;98725.22;5031759;28;20041;-64
2021/07/20 06:08:19;;;;;;;7.57;6.03;;;;;;;18.52;54.25;98730.19;5024546;28;20033;-68
2021/07/20 06:10:47;;;;;;;10.93;6.88;;;;;;;18.65;53.70;98738.19;5025831;28;20109;-67
2021/07/20 06:13:15;;;;;;;7.05;6.38;;;;;;;18.81;53.03;98741.69;5026039;28;20311;-68
2021/07/20 06:15:45;;;;;;;10.85;6.40;;;;;;;18.70;53.81;98733.63;5028030;28;20037;-68
2021/07/20 06:18:11;;;;;;;8.73;6.55;;;;;;;18.55;54.19;98744.75;5028388;28;20096;-68
2021/07/20 06:20:37;;;;;;;8.32;6.20;;;;;;;18.56;53.37;98741.25;5024275;28;20065;-68
2021/07/20 06:23:04;;;;;;;10.23;6.10;;;;;;;18.41;53.95;98736.78;5026084;28;20054;-68
2021/07/20 06:25:32;;;;;;;7.05;6.35;;;;;;;18.17;54.17;98728.41;5027997;28;20656;-68
2021/07/20 06:27:58;;;;;;;11.85;6.53;;;;;;;18.16;54.43;98730.16;5026629;28;20282;-68
2021/07/20 06:30:24;;;;;;;9.23;7.53;;;;;;;18.16;54.51;98719.78;5024696;28;20041;-68
2021/07/20 06:32:52;;;;;;;10.23;7.00;;;;;;;18.26;55.00;98718.44;5028099;28;20037;-68
2021/07/20 06:35:18;;;;;;;7.90;5.75;;;;;;;18.14;55.29;98713.00;5028589;28;20068;-68
2021/07/20 06:37:47;;;;;;;10.50;6.30;;;;;;;18.26;55.07;98722.78;5029210;28;20370;-68
2021/07/20 06:40:15;;;;;;;10.30;6.38;;;;;;;18.36;54.25;98724.03;5026530;28;20057;-67
2021/07/20 06:42:41;;;;;;;9.73;7.13;;;;;;;18.12;54.87;98720.84;5028512;28;20029;-68
2021/07/20 06:45:08;;;;;;;9.77;6.13;;;;;;;18.25;54.75;98726.28;5027715;28;20334;-68
2021/07/20 06:47:39;;;;;;;7.38;5.95;;;;;;;18.23;54.17;98726.38;5024059;28;20084;-68
2021/07/20 06:50:07;;;;;;;9.10;6.57;;;;;;;18.34;54.07;98737.97;5025379;28;20029;-69
2021/07/20 06:52:32;;;;;;;6.22;5.25;;;;;;;18.30;53.47;98739.03;5032874;28;20153;-68
2021/07/20 06:55:00;;;;;;;8.82;5.97;;;;;;;18.37;52.91;98748.25;5028455;28;20422;-68
2021/07/20 06:57:26;;;;;;;11.02;6.70;;;;;;;18.49;53.50;98739.84;5028198;28;20067;-68
2021/07/20 06:59:54;;;;;;;7.47;5.82;;;;;;;18.50;53.60;98744.13;5028960;28;20038;-68
2021/07/20 07:02:21;;;;;;;9.70;5.68;;;;;;;18.64;53.14;98746.91;5026812;28;20033;-69
2021/07/20 07:05:09;;;;;;;7.38;5.28;;;;;;;18.55;53.24;98744.75;5027950;28;20111;-68
2021/07/20 07:07:36;;;;;;;8.95;6.40;;;;;;;18.47;52.74;98739.91;5029236;28;20041;-68
2021/07/20 07:10:02;;;;;;;8.32;5.78;;;;;;;18.37;53.59;98740.44;5026703;28;20037;-68
2021/07/20 07:12:29;;;;;;;12.38;5.85;;;;;;;18.39;52.96;98739.44;5025713;28;20038;-69
2021/07/20 07:14:56;;;;;;;8.45;6.00;;;;;;;18.30;53.43;98736.44;5029365;28;20044;-69
2021/07/20 07:17:22;;;;;;;7.25;5.65;;;;;;;18.33;53.02;98733.72;5028798;28;20029;-69
2021/07/20 07:19:51;;;;;;;6.93;5.85;;;;;;;18.57;51.86;98732.56;5026686;28;20056;-69
2021/07/20 07:22:21;;;;;;;7.75;6.40;;;;;;;18.80;51.17;98732.22;5027858;28;20057;-69
2021/07/20 07:24:47;;;;;;;5.70;5.20;;;;;;;18.95;50.80;98734.06;5027097;28;20329;-69
2021/07/20 07:27:14;;;;;;;8.73;6.43;;;;;;;19.09;50.35;98721.19;5027382;28;20041;-69
2021/07/20 07:29:42;;;;;;;13.52;6.65;;;;;;;19.32;49.84;98732.97;5029598;28;20033;-69
2021/07/20 07:32:07;;;;;;;8.60;5.70;;;;;;;18.95;50.28;98736.66;5027428;28;20423;-69
2021/07/20 07:34:33;;;;;;;7.78;5.32;;;;;;;19.14;49.97;98733.94;5028744;28;20044;-69
2021/07/20 07:36:59;;;;;;;7.20;5.30;;;;;;;19.49;49.09;98732.13;5028625;28;20033;-70
2021/07/20 07:39:26;;;;;;;7.88;6.15;;;;;;;19.11;49.69;98734.09;5033306;28;20025;-70
2021/07/20 07:41:53;;;;;;;7.38;5.80;;;;;;;19.03;50.46;98746.66;5028710;28;20335;-68
2021/07/20 07:44:20;;;;;;;7.32;6.47;;;;;;;19.22;50.75;98737.00;5031906;28;20386;-68
2021/07/20 07:46:48;;;;;;;7.40;5.78;;;;;;;19.48;50.12;98738.22;5031727;28;20378;-68
2021/07/20 07:49:15;;;;;;;7.07;6.22;;;;;;;19.65;49.95;98727.75;5030497;28;20101;-67
2021/07/20 07:51:43;;;;;;;8.20;6.13;;;;;;;19.81;49.50;98731.22;5029021;28;20052;-69
2021/07/20 07:54:09;;;;;;;9.60;5.80;;;;;;;19.76;49.31;98720.22;5031939;28;20033;-69
2021/07/20 07:56:38;;;;;;;10.05;8.05;;;;;;;19.90;49.12;98733.31;5032026;28;20436;-68
2021/07/20 07:59:05;;;;;;;8.63;6.05;;;;;;;20.06;49.42;98733.31;5026962;28;20029;-68
2021/07/20 08:01:32;;;;;;;7.07;6.30;;;;;;;20.10;49.31;98728.78;5028929;28;20091;-68
2021/07/20 08:03:59;;;;;;;6.93;6.13;;;;;;;19.82;49.02;98742.47;5025898;28;20040;-69
2021/07/20 08:06:26;;;;;;;10.57;6.43;;;;;;;19.80;49.31;98732.16;5029168;28;20037;-68
2021/07/20 08:08:58;;;;;;;8.88;5.88;;;;;;;19.92;49.63;98735.84;5027569;28;20089;-69
2021/07/20 08:11:25;;;;;;;7.45;6.22;;;;;;;19.87;49.95;98727.44;5031907;28;20666;-68
2021/07/20 08:13:52;;;;;;;8.88;6.85;;;;;;;19.82;49.76;98739.84;5030027;28;20274;-69
2021/07/20 08:16:20;;;;;;;7.18;5.95;;;;;;;19.80;49.15;98734.75;5026638;28;20111;-69
2021/07/20 08:18:46;;;;;;;10.43;6.90;;;;;;;19.46;50.00;98751.34;5030763;28;20040;-69
2021/07/20 08:21:12;;;;;;;7.68;6.15;;;;;;;19.43;50.31;98738.50;5028258;28;20450;-69
2021/07/20 08:23:38;;;;;;;9.18;6.28;;;;;;;19.84;50.09;98744.06;5028705;28;20050;-69
2021/07/20 08:26:13;;;;;;;7.60;6.82;;;;;;;20.31;49.32;98735.41;5029208;28;20426;-69
2021/07/20 08:28:43;;;;;;;8.23;6.68;;;;;;;19.96;48.69;98742.53;5028749;28;20102;-69
2021/07/20 08:31:11;;;;;;;10.52;7.28;;;;;;;20.11;48.83;98739.13;5029878;28;20287;-69
2021/07/20 08:33:38;;;;;;;9.30;6.70;;;;;;;20.62;48.50;98732.75;5023886;28;20303;-69
2021/07/20 08:36:08;;;;;;;8.70;6.22;;;;;;;21.05;47.33;98735.44;5043941;28;20033;-69
2021/07/20 08:38:35;;;;;;;8.15;7.35;;;;;;;21.38;47.25;98730.81;5029461;28;20040;-69
2021/07/20 08:41:08;;;;;;;10.35;6.82;;;;;;;20.67;47.48;98732.44;5030089;28;20048;-68
2021/07/20 08:44:11;;;;;;;11.50;5.95;;;;;;;20.41;48.15;98726.16;5024807;28;20037;-69
2021/07/20 08:46:42;;;;;;;12.45;7.00;;;;;;;20.25;49.00;98731.34;5032884;28;20160;-70
2021/07/20 08:49:33;;;;;;;13.75;7.13;;;;;;;20.32;48.43;98726.69;5027683;28;20040;-69
2021/07/20 08:52:19;;;;;;;9.15;6.55;;;;;;;20.36;48.45;98731.63;5024008;28;20038;-69
2021/07/20 08:54:50;;;;;;;8.68;6.65;;;;;;;20.73;47.17;98730.34;5025900;28;20374;-69
2021/07/20 08:57:47;;;;;;;10.52;6.88;;;;;;;20.71;47.43;98745.19;5025154;28;20025;-68
2021/07/20 09:00:18;;;;;;;7.38;6.15;;;;;;;20.43;48.55;98739.91;5027141;28;20272;-67
2021/07/20 09:03:08;;;;;;;8.32;6.35;;;;;;;20.85;48.62;98732.22;5029171;28;20044;-68
2021/07/20 09:05:41;;;;;;;13.25;7.32;;;;;;;21.05;47.84;98733.63;5025525;28;20048;-67
2021/07/20 09:08:16;;;;;;;9.10;5.88;;;;;;;21.28;46.89;98740.94;5028322;28;20397;-68
2021/07/20 09:10:47;;;;;;;;;;;;;;;21.31;47.27;98737.31;5027559;28;20041;-68
2021/07/20 09:13:18;;;;;;;9.40;6.47;;;;;;;21.31;48.23;98734.69;5025570;28;20035;-68
2021/07/20 09:15:51;;;;;;;8.57;7.63;;;;;;;21.08;48.89;98722.19;5030170;28;20033;-68
2021/07/20 09:18:28;;;;;;;9.23;6.82;;;;;;;21.37;48.57;98735.19;5029918;28;20103;-68
2021/07/20 09:20:59;;;;;;;11.15;6.82;;;;;;;21.82;48.50;98728.03;5024278;28;20036;-68
2021/07/20 09:23:43;;;;;;;12.07;8.10;;;;;;;22.01;48.48;98727.75;5031427;28;20432;-70
2021/07/20 09:26:11;;;;;;;13.13;7.43;;;;;;;21.50;48.35;98729.22;5026705;28;20157;-70
2021/07/20 09:28:39;;;;;;;11.45;7.68;;;;;;;21.82;48.72;98730.63;5029941;28;20401;-69
2021/07/20 09:31:12;;;;;;;11.57;7.68;;;;;;;21.83;48.45;98734.94;5022444;28;20781;-70
2021/07/20 09:34:03;;;;;;;14.38;10.63;;;;;;;22.22;47.82;98726.38;5027212;28;20037;-69
2021/07/20 09:36:42;;;;;;;13.57;7.95;;;;;;;22.11;48.21;98721.81;5027856;28;20048;-70
2021/07/20 09:39:34;;;;;;;10.85;8.63;;;;;;;22.46;47.40;98729.16;5027563;28;20393;-70
2021/07/20 09:42:15;;;;;;;9.30;7.40;;;;;;;22.35;46.81;98734.25;5027305;28;20418;-69
2021/07/20 09:44:51;;;;;;;8.82;7.40;;;;;;;22.58;46.56;98728.31;5026064;28;20033;-70
2021/07/20 09:47:36;;;;;;;13.27;8.23;;;;;;;22.76;46.31;98729.75;5029509;28;20025;-70
2021/07/20 09:50:05;;;;;;;9.73;7.22;;;;;;;22.58;46.68;98738.78;5024934;28;20049;-69
2021/07/20 09:52:42;;;;;;;12.55;7.65;;;;;;;22.19;47.25;98735.22;5026757;28;20039;-68
2021/07/20 09:55:35;;;;;;;8.25;6.88;;;;;;;22.03;47.65;98733.69;5023437;28;20101;-68
2021/07/20 09:58:22;;;;;;;10.80;7.75;;;;;;;21.97;48.02;98745.38;5025794;28;20431;-70
2021/07/20 10:01:17;;;;;;;10.50;6.90;;;;;;;22.03;47.23;98751.97;5029938;28;20032;-70
2021/07/20 10:04:11;;;;;;;7.28;6.53;;;;;;;22.10;46.71;98758.50;5026281;28;20025;-71
2021/07/20 10:06:36;;;;;;;10.70;7.13;;;;;;;21.85;46.63;98739.09;5026547;28;20598;-70
2021/07/20 10:09:23;;;;;;;9.73;7.53;;;;;;;22.14;46.00;98744.31;5027431;28;20041;-70
2021/07/20 10:12:00;;;;;;;8.85;6.40;;;;;;;22.07;45.18;98738.63;5027447;28;20044;-69
2021/07/20 10:14:31;;;;;;;8.85;6.88;;;;;;;22.39;44.32;98733.94;5025031;28;20324;-69
2021/07/20 10:17:17;;;;;;;10.30;7.05;;;;;;;22.21;44.64;98727.28;5025722;28;20116;-71
2021/07/20 10:19:47;;;;;;;8.35;7.45;;;;;;;22.21;43.83;98735.97;5025875;28;20065;-69
2021/07/20 10:22:15;;;;;;;8.18;6.72;;;;;;;22.12;45.04;98735.72;5026912;28;20405;-71
2021/07/20 10:24:57;;;;;;;8.15;7.18;;;;;;;22.43;44.23;98735.41;5023402;28;20424;-71
2021/07/20 10:27:45;;;;;;;9.15;7.38;;;;;;;22.43;43.98;98730.19;5024255;28;20331;-70
2021/07/20 10:30:13;;;;;;;9.18;7.82;;;;;;;22.26;43.58;98731.28;5025910;28;20033;-70
2021/07/20 10:33:03;;;;;;;8.98;7.60;;;;;;;22.26;44.20;98725.22;5026859;28;20033;-70
2021/07/20 10:35:54;;;;;;;13.77;7.78;;;;;;;22.39;44.36;98725.25;5025619;28;20379;-69
2021/07/20 10:38:26;;;;;;;9.23;8.30;;;;;;;21.98;45.60;98727.94;5026294;28;20057;-68
2021/07/20 10:40:54;;;;;;;10.60;7.90;;;;;;;22.50;45.08;98730.63;5028166;28;20041;-68
2021/07/20 10:43:28;;;;;;;11.07;7.82;;;;;;;22.49;44.63;98721.94;5033131;28;20141;-68
2021/07/20 10:45:54;;;;;;;11.65;7.82;;;;;;;22.77;44.65;98719.22;5027802;28;20025;-68
2021/07/20 10:48:23;;;;;;;10.85;7.20;;;;;;;22.84;43.61;98716.16;5025732;28;20099;-69
2021/07/20 10:51:15;;;;;;;10.23;7.68;;;;;;;22.92;43.91;98724.31;5026897;28;20116;-69
2021/07/20 10:53:59;;;;;;;11.93;7.63;;;;;;;23.22;42.73;98723.09;5029501;28;20021;-70
2021/07/20 10:56:37;;;;;;;9.27;7.65;;;;;;;23.21;43.54;98726.63;5028269;28;20029;-70
2021/07/20 10:59:05;;;;;;;8.38;7.57;;;;;;;23.02;43.55;98718.38;5030024;28;20056;-69
2021/07/20 11:01:46;;;;;;;9.65;7.63;;;;;;;23.25;42.58;98718.59;5026975;28;20048;-71
2021/07/20 11:04:35;;;;;;;9.50;8.20;;;;;;;23.13;43.61;98718.47;5032565;28;20034;-69
2021/07/20 11:07:02;;;;;;;10.65;8.15;;;;;;;22.82;43.75;98718.91;5030558;28;20189;-70
2021/07/20 11:09:29;;;;;;;10.80;8.07;;;;;;;22.97;44.62;98719.63;5032720;28;20137;-70
2021/07/20 11:11:59;;;;;;;10.75;7.68;;;;;;;23.21;42.61;98715.34;5039615;28;20382;-70
2021/07/20 11:14:31;;;;;;;10.40;7.30;;;;;;;23.18;44.32;98721.63;5030834;28;20041;-70
2021/07/20 11:16:59;;;;;;;8.20;7.28;;;;;;;23.33;43.04;98724.97;5030022;28;20132;-69
2021/07/20 11:19:27;;;;;;;9.20;8.18;;;;;;;23.10;43.06;98729.16;5033632;28;20033;-69
2021/07/20 11:21:55;;;;;;;10.35;7.78;;;;;;;23.18;43.37;98720.78;5029848;28;20055;-69
2021/07/20 11:24:22;;;;;;;9.57;8.35;;;;;;;23.32;43.32;98723.28;5032635;28;20053;-68
2021/07/20 11:26:47;;;;;;;18.98;8.57;;;;;;;23.31;43.50;98712.91;5029142;28;20318;-68
2021/07/20 11:29:13;;;;;;;11.48;8.52;;;;;;;23.53;43.02;98695.66;5031575;28;20135;-69
2021/07/20 11:31:48;;;;;;;9.40;8.25;;;;;;;23.59;43.26;98705.66;5030978;28;20040;-68
2021/07/20 11:34:20;;;;;;;11.40;8.00;;;;;;;23.73;42.39;98701.25;5031460;28;20025;-68
2021/07/20 11:36:46;;;;;;;9.27;8.10;;;;;;;23.53;42.66;98700.03;5025550;28;20088;-69
2021/07/20 11:39:22;;;;;;;11.88;8.75;;;;;;;23.96;42.65;98696.03;5030362;28;20029;-68
2021/07/20 11:41:58;;;;;;;8.70;7.82;;;;;;;23.68;42.16;98706.81;5030601;28;20044;-68
2021/07/20 11:45:00;;;;;;;10.07;7.85;;;;;;;23.59;42.11;98704.88;5028780;28;20406;-69
2021/07/20 11:48:02;;;;;;;11.27;8.95;;;;;;;23.75;41.75;98707.22;5030278;28;20032;-69
2021/07/20 11:50:37;;;;;;;10.23;8.25;;;;;;;23.72;42.05;98702.22;5028344;28;20045;-69